sensor_id;sensor_type;location;lat;lon;timestamp;P1;durP1;ratioP1;P2;durP2;ratioP2
17991;SDS011;9121;50.926;5.340;2023-09-07T00:00:32;14.65;;;7.70;;
17991;SDS011;9121;50.926;5.340;2023-09-07T00:02:59;8.95;;;6.55;;
17991;SDS011;9121;50.926;5.340;2023-09-07T00:05:26;13.18;;;7.20;;
17991;SDS011;9121;50.926;5.340;2023-09-07T00:07:53;11.95;;;7.78;;
17991;SDS011;9121;50.926;5.340;2023-09-07T00:10:22;11.05;;;7.00;;
17991;SDS011;9121;50.926;5.340;2023-09-07T00:12:50;10.80;;;7.53;;
17991;SDS011;9121;50.926;5.340;2023-09-07T00:15:17;10.55;;;7.68;;
17991;SDS011;9121;50.926;5.340;2023-09-07T00:17:46;12.13;;;8.10;;
17991;SDS011;9121;50.926;5.340;2023-09-07T00:20:14;10.70;;;8.10;;
17991;SDS011;9121;50.926;5.340;2023-09-07T00:22:41;12.23;;;7.97;;
17991;SDS011;9121;50.926;5.340;2023-09-07T00:25:08;11.95;;;7.65;;
17991;SDS011;9121;50.926;5.340;2023-09-07T00:27:36;15.63;;;7.95;;
17991;SDS011;9121;50.926;5.340;2023-09-07T00:30:03;14.45;;;8.40;;
17991;SDS011;9121;50.926;5.340;2023-09-07T00:32:32;13.70;;;8.52;;
17991;SDS011;9121;50.926;5.340;2023-09-07T00:35:01;15.43;;;8.75;;
17991;SDS011;9121;50.926;5.340;2023-09-07T00:37:29;12.98;;;8.55;;
17991;SDS011;9121;50.926;5.340;2023-09-07T00:39:56;13.95;;;8.68;;
17991;SDS011;9121;50.926;5.340;2023-09-07T00:42:22;13.27;;;9.88;;
17991;SDS011;9121;50.926;5.340;2023-09-07T00:44:51;17.75;;;10.38;;
17991;SDS011;9121;50.926;5.340;2023-09-07T00:47:18;20.73;;;10.32;;
17991;SDS011;9121;50.926;5.340;2023-09-07T00:49:45;16.92;;;9.80;;
17991;SDS011;9121;50.926;5.340;2023-09-07T00:52:12;13.80;;;10.45;;
17991;SDS011;9121;50.926;5.340;2023-09-07T00:54:39;15.05;;;10.13;;
17991;SDS011;9121;50.926;5.340;2023-09-07T00:57:08;28.90;;;11.35;;
17991;SDS011;9121;50.926;5.340;2023-09-07T00:59:35;18.92;;;10.63;;
17991;SDS011;9121;50.926;5.340;2023-09-07T01:02:04;14.93;;;10.10;;
17991;SDS011;9121;50.926;5.340;2023-09-07T01:04:31;12.88;;;9.45;;
17991;SDS011;9121;50.926;5.340;2023-09-07T01:07:00;15.07;;;10.45;;
17991;SDS011;9121;50.926;5.340;2023-09-07T01:09:31;15.00;;;9.68;;
17991;SDS011;9121;50.926;5.340;2023-09-07T01:12:00;14.85;;;10.07;;
17991;SDS011;9121;50.926;5.340;2023-09-07T01:14:27;14.07;;;9.90;;
17991;SDS011;9121;50.926;5.340;2023-09-07T01:16:54;16.65;;;10.75;;
17991;SDS011;9121;50.926;5.340;2023-09-07T01:19:23;13.65;;;10.13;;
17991;SDS011;9121;50.926;5.340;2023-09-07T01:21:51;18.80;;;10.00;;
17991;SDS011;9121;50.926;5.340;2023-09-07T01:24:18;13.82;;;9.88;;
17991;SDS011;9121;50.926;5.340;2023-09-07T01:26:48;12.63;;;10.05;;
17991;SDS011;9121;50.926;5.340;2023-09-07T01:29:15;14.65;;;9.57;;
17991;SDS011;9121;50.926;5.340;2023-09-07T01:31:42;12.85;;;9.13;;
17991;SDS011;9121;50.926;5.340;2023-09-07T01:34:09;15.13;;;9.30;;
17991;SDS011;9121;50.926;5.340;2023-09-07T01:36:36;13.90;;;10.15;;
17991;SDS011;9121;50.926;5.340;2023-09-07T01:39:05;13.52;;;9.45;;
17991;SDS011;9121;50.926;5.340;2023-09-07T01:41:32;13.82;;;9.40;;
17991;SDS011;9121;50.926;5.340;2023-09-07T01:43:59;13.60;;;9.10;;
17991;SDS011;9121;50.926;5.340;2023-09-07T01:46:26;13.75;;;9.52;;
17991;SDS011;9121;50.926;5.340;2023-09-07T01:48:53;17.25;;;9.30;;
17991;SDS011;9121;50.926;5.340;2023-09-07T01:51:20;13.02;;;9.18;;
17991;SDS011;9121;50.926;5.340;2023-09-07T01:53:47;14.65;;;9.60;;
17991;SDS011;9121;50.926;5.340;2023-09-07T01:56:16;12.27;;;8.43;;
17991;SDS011;9121;50.926;5.340;2023-09-07T01:58:43;13.10;;;8.73;;
17991;SDS011;9121;50.926;5.340;2023-09-07T02:01:19;10.70;;;7.97;;
17991;SDS011;9121;50.926;5.340;2023-09-07T02:03:47;16.27;;;9.15;;
17991;SDS011;9121;50.926;5.340;2023-09-07T02:06:14;11.98;;;8.80;;
17991;SDS011;9121;50.926;5.340;2023-09-07T02:08:41;14.98;;;8.80;;
17991;SDS011;9121;50.926;5.340;2023-09-07T02:11:08;13.23;;;8.95;;
17991;SDS011;9121;50.926;5.340;2023-09-07T02:13:37;12.68;;;8.45;;
17991;SDS011;9121;50.926;5.340;2023-09-07T02:16:04;13.75;;;8.98;;
17991;SDS011;9121;50.926;5.340;2023-09-07T02:18:31;13.27;;;8.93;;
17991;SDS011;9121;50.926;5.340;2023-09-07T02:21:01;14.55;;;9.45;;
17991;SDS011;9121;50.926;5.340;2023-09-07T02:23:29;15.38;;;8.73;;
17991;SDS011;9121;50.926;5.340;2023-09-07T02:25:56;15.02;;;8.50;;
17991;SDS011;9121;50.926;5.340;2023-09-07T02:28:23;16.08;;;8.82;;
17991;SDS011;9121;50.926;5.340;2023-09-07T02:30:51;12.50;;;8.90;;
17991;SDS011;9121;50.926;5.340;2023-09-07T02:33:19;18.00;;;8.77;;
17991;SDS011;9121;50.926;5.340;2023-09-07T02:35:47;14.35;;;9.57;;
17991;SDS011;9121;50.926;5.340;2023-09-07T02:38:14;16.08;;;9.15;;
17991;SDS011;9121;50.926;5.340;2023-09-07T02:40:41;13.55;;;8.57;;
17991;SDS011;9121;50.926;5.340;2023-09-07T02:43:09;15.27;;;8.70;;
17991;SDS011;9121;50.926;5.340;2023-09-07T02:45:36;23.08;;;9.50;;
17991;SDS011;9121;50.926;5.340;2023-09-07T02:48:06;19.75;;;9.75;;
17991;SDS011;9121;50.926;5.340;2023-09-07T02:50:33;15.40;;;9.55;;
17991;SDS011;9121;50.926;5.340;2023-09-07T02:53:01;13.50;;;9.25;;
17991;SDS011;9121;50.926;5.340;2023-09-07T02:55:29;12.60;;;9.52;;
17991;SDS011;9121;50.926;5.340;2023-09-07T02:57:56;14.35;;;9.35;;
17991;SDS011;9121;50.926;5.340;2023-09-07T03:00:24;13.52;;;9.15;;
17991;SDS011;9121;50.926;5.340;2023-09-07T03:02:51;15.70;;;9.95;;
17991;SDS011;9121;50.926;5.340;2023-09-07T03:05:19;15.13;;;9.90;;
17991;SDS011;9121;50.926;5.340;2023-09-07T03:07:46;16.27;;;9.00;;
17991;SDS011;9121;50.926;5.340;2023-09-07T03:10:13;12.23;;;8.95;;
17991;SDS011;9121;50.926;5.340;2023-09-07T03:12:40;15.80;;;9.55;;
17991;SDS011;9121;50.926;5.340;2023-09-07T03:15:07;13.23;;;9.57;;
17991;SDS011;9121;50.926;5.340;2023-09-07T03:17:35;14.60;;;9.20;;
17991;SDS011;9121;50.926;5.340;2023-09-07T03:20:02;13.48;;;9.00;;
17991;SDS011;9121;50.926;5.340;2023-09-07T03:22:40;12.55;;;9.48;;
17991;SDS011;9121;50.926;5.340;2023-09-07T03:25:07;11.93;;;8.27;;
17991;SDS011;9121;50.926;5.340;2023-09-07T03:27:35;13.00;;;8.55;;
17991;SDS011;9121;50.926;5.340;2023-09-07T03:30:02;15.25;;;9.30;;
17991;SDS011;9121;50.926;5.340;2023-09-07T03:32:30;26.75;;;9.50;;
17991;SDS011;9121;50.926;5.340;2023-09-07T03:34:58;54.45;;;10.10;;
17991;SDS011;9121;50.926;5.340;2023-09-07T03:37:25;10.98;;;8.10;;
17991;SDS011;9121;50.926;5.340;2023-09-07T03:39:54;12.43;;;8.07;;
17991;SDS011;9121;50.926;5.340;2023-09-07T03:42:21;12.50;;;8.32;;
17991;SDS011;9121;50.926;5.340;2023-09-07T03:44:48;11.95;;;7.95;;
17991;SDS011;9121;50.926;5.340;2023-09-07T03:47:16;12.50;;;7.90;;
17991;SDS011;9121;50.926;5.340;2023-09-07T03:49:43;12.77;;;7.97;;
17991;SDS011;9121;50.926;5.340;2023-09-07T03:52:10;10.77;;;8.27;;
17991;SDS011;9121;50.926;5.340;2023-09-07T03:54:37;13.73;;;8.82;;
17991;SDS011;9121;50.926;5.340;2023-09-07T03:57:05;14.18;;;8.23;;
17991;SDS011;9121;50.926;5.340;2023-09-07T03:59:32;16.40;;;8.82;;
17991;SDS011;9121;50.926;5.340;2023-09-07T04:01:59;13.02;;;8.13;;
17991;SDS011;9121;50.926;5.340;2023-09-07T04:04:26;27.80;;;8.80;;
17991;SDS011;9121;50.926;5.340;2023-09-07T04:06:53;15.32;;;8.68;;
17991;SDS011;9121;50.926;5.340;2023-09-07T04:09:20;13.50;;;7.88;;
17991;SDS011;9121;50.926;5.340;2023-09-07T04:11:47;18.13;;;8.15;;
17991;SDS011;9121;50.926;5.340;2023-09-07T04:14:16;14.77;;;8.02;;
17991;SDS011;9121;50.926;5.340;2023-09-07T04:16:42;14.23;;;8.75;;
17991;SDS011;9121;50.926;5.340;2023-09-07T04:19:09;12.98;;;8.68;;
17991;SDS011;9121;50.926;5.340;2023-09-07T04:21:36;11.30;;;8.23;;
17991;SDS011;9121;50.926;5.340;2023-09-07T04:24:04;11.30;;;7.85;;
17991;SDS011;9121;50.926;5.340;2023-09-07T04:26:32;12.65;;;8.75;;
17991;SDS011;9121;50.926;5.340;2023-09-07T04:28:59;16.52;;;8.68;;
17991;SDS011;9121;50.926;5.340;2023-09-07T04:31:28;14.30;;;8.32;;
17991;SDS011;9121;50.926;5.340;2023-09-07T04:33:55;46.33;;;9.90;;
17991;SDS011;9121;50.926;5.340;2023-09-07T04:36:21;47.05;;;10.18;;
17991;SDS011;9121;50.926;5.340;2023-09-07T04:38:48;29.88;;;9.68;;
17991;SDS011;9121;50.926;5.340;2023-09-07T04:41:15;20.35;;;8.38;;
17991;SDS011;9121;50.926;5.340;2023-09-07T04:43:42;18.88;;;8.68;;
17991;SDS011;9121;50.926;5.340;2023-09-07T04:46:09;16.00;;;8.80;;
17991;SDS011;9121;50.926;5.340;2023-09-07T04:48:38;24.65;;;9.20;;
17991;SDS011;9121;50.926;5.340;2023-09-07T04:51:07;18.77;;;9.43;;
17991;SDS011;9121;50.926;5.340;2023-09-07T04:53:35;17.92;;;9.38;;
17991;SDS011;9121;50.926;5.340;2023-09-07T04:56:03;19.20;;;9.63;;
17991;SDS011;9121;50.926;5.340;2023-09-07T04:58:32;19.25;;;9.00;;
17991;SDS011;9121;50.926;5.340;2023-09-07T05:01:01;21.40;;;9.70;;
17991;SDS011;9121;50.926;5.340;2023-09-07T05:03:29;21.85;;;9.65;;
17991;SDS011;9121;50.926;5.340;2023-09-07T05:05:59;24.00;;;9.73;;
17991;SDS011;9121;50.926;5.340;2023-09-07T05:08:26;14.52;;;8.73;;
17991;SDS011;9121;50.926;5.340;2023-09-07T05:10:57;27.15;;;9.38;;
17991;SDS011;9121;50.926;5.340;2023-09-07T05:13:25;15.43;;;9.00;;
17991;SDS011;9121;50.926;5.340;2023-09-07T05:15:52;15.52;;;8.98;;
17991;SDS011;9121;50.926;5.340;2023-09-07T05:18:20;15.50;;;9.00;;
17991;SDS011;9121;50.926;5.340;2023-09-07T05:20:47;18.00;;;9.57;;
17991;SDS011;9121;50.926;5.340;2023-09-07T05:23:18;16.83;;;9.23;;
17991;SDS011;9121;50.926;5.340;2023-09-07T05:25:45;63.95;;;11.45;;
17991;SDS011;9121;50.926;5.340;2023-09-07T05:28:13;101.78;;;13.63;;
17991;SDS011;9121;50.926;5.340;2023-09-07T05:30:41;51.70;;;11.68;;
17991;SDS011;9121;50.926;5.340;2023-09-07T05:33:08;23.48;;;10.25;;
17991;SDS011;9121;50.926;5.340;2023-09-07T05:35:36;23.65;;;10.27;;
17991;SDS011;9121;50.926;5.340;2023-09-07T05:38:03;16.80;;;10.40;;
17991;SDS011;9121;50.926;5.340;2023-09-07T05:40:34;23.48;;;11.27;;
17991;SDS011;9121;50.926;5.340;2023-09-07T05:43:02;42.75;;;11.68;;
17991;SDS011;9121;50.926;5.340;2023-09-07T05:45:29;20.80;;;11.00;;
17991;SDS011;9121;50.926;5.340;2023-09-07T05:47:57;20.50;;;11.32;;
17991;SDS011;9121;50.926;5.340;2023-09-07T05:50:24;17.20;;;10.52;;
17991;SDS011;9121;50.926;5.340;2023-09-07T05:52:51;18.42;;;11.27;;
17991;SDS011;9121;50.926;5.340;2023-09-07T05:55:18;30.83;;;12.15;;
17991;SDS011;9121;50.926;5.340;2023-09-07T05:57:46;23.90;;;11.98;;
17991;SDS011;9121;50.926;5.340;2023-09-07T06:00:14;20.98;;;11.07;;
17991;SDS011;9121;50.926;5.340;2023-09-07T06:02:42;30.52;;;11.52;;
17991;SDS011;9121;50.926;5.340;2023-09-07T06:05:09;30.90;;;11.77;;
17991;SDS011;9121;50.926;5.340;2023-09-07T06:07:36;23.20;;;11.45;;
17991;SDS011;9121;50.926;5.340;2023-09-07T06:10:03;296.30;;;25.70;;
17991;SDS011;9121;50.926;5.340;2023-09-07T06:12:31;52.92;;;11.90;;
17991;SDS011;9121;50.926;5.340;2023-09-07T06:14:59;55.00;;;12.23;;
17991;SDS011;9121;50.926;5.340;2023-09-07T06:17:26;25.90;;;11.13;;
17991;SDS011;9121;50.926;5.340;2023-09-07T06:19:54;22.67;;;10.63;;
17991;SDS011;9121;50.926;5.340;2023-09-07T06:22:21;22.50;;;11.32;;
17991;SDS011;9121;50.926;5.340;2023-09-07T06:24:48;30.33;;;10.95;;
17991;SDS011;9121;50.926;5.340;2023-09-07T06:27:15;25.30;;;10.98;;
17991;SDS011;9121;50.926;5.340;2023-09-07T06:29:42;18.42;;;10.15;;
17991;SDS011;9121;50.926;5.340;2023-09-07T06:32:10;18.98;;;10.18;;
17991;SDS011;9121;50.926;5.340;2023-09-07T06:34:39;96.20;;;13.88;;
17991;SDS011;9121;50.926;5.340;2023-09-07T06:37:06;27.85;;;11.80;;
17991;SDS011;9121;50.926;5.340;2023-09-07T06:39:33;17.48;;;10.48;;
17991;SDS011;9121;50.926;5.340;2023-09-07T06:42:00;19.13;;;10.55;;
17991;SDS011;9121;50.926;5.340;2023-09-07T06:44:28;22.52;;;10.85;;
17991;SDS011;9121;50.926;5.340;2023-09-07T06:46:55;23.08;;;9.95;;
17991;SDS011;9121;50.926;5.340;2023-09-07T06:49:24;17.08;;;9.85;;
17991;SDS011;9121;50.926;5.340;2023-09-07T06:51:51;18.98;;;9.82;;
17991;SDS011;9121;50.926;5.340;2023-09-07T06:54:18;34.72;;;11.05;;
17991;SDS011;9121;50.926;5.340;2023-09-07T06:56:45;46.88;;;11.77;;
17991;SDS011;9121;50.926;5.340;2023-09-07T06:59:12;37.05;;;11.10;;
17991;SDS011;9121;50.926;5.340;2023-09-07T07:01:39;22.48;;;9.95;;
17991;SDS011;9121;50.926;5.340;2023-09-07T07:04:06;19.27;;;9.98;;
17991;SDS011;9121;50.926;5.340;2023-09-07T07:06:35;19.65;;;11.38;;
17991;SDS011;9121;50.926;5.340;2023-09-07T07:09:02;36.17;;;11.80;;
17991;SDS011;9121;50.926;5.340;2023-09-07T07:11:31;20.77;;;11.90;;
17991;SDS011;9121;50.926;5.340;2023-09-07T07:13:58;20.63;;;11.05;;
17991;SDS011;9121;50.926;5.340;2023-09-07T07:16:25;48.90;;;14.15;;
17991;SDS011;9121;50.926;5.340;2023-09-07T07:18:52;28.20;;;13.27;;
17991;SDS011;9121;50.926;5.340;2023-09-07T07:21:20;27.88;;;15.20;;
17991;SDS011;9121;50.926;5.340;2023-09-07T07:23:48;30.95;;;13.93;;
17991;SDS011;9121;50.926;5.340;2023-09-07T07:26:15;32.63;;;13.82;;
17991;SDS011;9121;50.926;5.340;2023-09-07T07:28:42;26.02;;;13.07;;
17991;SDS011;9121;50.926;5.340;2023-09-07T07:31:09;25.80;;;13.68;;
17991;SDS011;9121;50.926;5.340;2023-09-07T07:33:36;40.78;;;14.82;;
17991;SDS011;9121;50.926;5.340;2023-09-07T07:36:04;26.13;;;14.27;;
17991;SDS011;9121;50.926;5.340;2023-09-07T07:38:31;30.02;;;14.70;;
17991;SDS011;9121;50.926;5.340;2023-09-07T07:40:59;21.77;;;12.93;;
17991;SDS011;9121;50.926;5.340;2023-09-07T07:43:26;23.73;;;12.63;;
17991;SDS011;9121;50.926;5.340;2023-09-07T07:45:53;63.92;;;14.35;;
17991;SDS011;9121;50.926;5.340;2023-09-07T07:48:20;49.65;;;13.48;;
17991;SDS011;9121;50.926;5.340;2023-09-07T07:50:47;23.70;;;12.70;;
17991;SDS011;9121;50.926;5.340;2023-09-07T07:53:14;27.85;;;12.43;;
17991;SDS011;9121;50.926;5.340;2023-09-07T07:55:41;31.85;;;13.10;;
17991;SDS011;9121;50.926;5.340;2023-09-07T07:58:10;31.92;;;12.38;;
17991;SDS011;9121;50.926;5.340;2023-09-07T08:00:37;23.00;;;11.68;;
17991;SDS011;9121;50.926;5.340;2023-09-07T08:03:06;73.30;;;14.55;;
17991;SDS011;9121;50.926;5.340;2023-09-07T08:05:33;30.58;;;12.48;;
17991;SDS011;9121;50.926;5.340;2023-09-07T08:08:00;19.83;;;11.82;;
17991;SDS011;9121;50.926;5.340;2023-09-07T08:10:28;134.45;;;17.77;;
17991;SDS011;9121;50.926;5.340;2023-09-07T08:12:55;57.60;;;11.63;;
17991;SDS011;9121;50.926;5.340;2023-09-07T08:15:24;24.10;;;10.85;;
17991;SDS011;9121;50.926;5.340;2023-09-07T08:17:52;22.98;;;10.15;;
17991;SDS011;9121;50.926;5.340;2023-09-07T08:20:20;19.10;;;9.18;;
17991;SDS011;9121;50.926;5.340;2023-09-07T08:22:47;19.13;;;8.95;;
17991;SDS011;9121;50.926;5.340;2023-09-07T08:25:14;16.45;;;7.65;;
17991;SDS011;9121;50.926;5.340;2023-09-07T08:27:41;19.17;;;7.15;;
17991;SDS011;9121;50.926;5.340;2023-09-07T08:30:09;26.15;;;7.70;;
17991;SDS011;9121;50.926;5.340;2023-09-07T08:32:38;14.90;;;6.68;;
17991;SDS011;9121;50.926;5.340;2023-09-07T08:35:06;24.67;;;7.40;;
17991;SDS011;9121;50.926;5.340;2023-09-07T08:37:34;17.85;;;6.90;;
17991;SDS011;9121;50.926;5.340;2023-09-07T08:40:01;16.45;;;7.07;;
17991;SDS011;9121;50.926;5.340;2023-09-07T08:42:32;12.05;;;6.32;;
17991;SDS011;9121;50.926;5.340;2023-09-07T08:44:59;12.02;;;6.70;;
17991;SDS011;9121;50.926;5.340;2023-09-07T08:47:31;19.88;;;6.43;;
17991;SDS011;9121;50.926;5.340;2023-09-07T08:50:01;19.27;;;6.60;;
17991;SDS011;9121;50.926;5.340;2023-09-07T08:52:28;11.77;;;6.05;;
17991;SDS011;9121;50.926;5.340;2023-09-07T08:54:56;13.40;;;6.00;;
17991;SDS011;9121;50.926;5.340;2023-09-07T08:57:26;28.73;;;6.53;;
17991;SDS011;9121;50.926;5.340;2023-09-07T08:59:54;11.57;;;5.63;;
17991;SDS011;9121;50.926;5.340;2023-09-07T09:02:21;31.55;;;6.70;;
17991;SDS011;9121;50.926;5.340;2023-09-07T09:04:48;37.58;;;6.57;;
17991;SDS011;9121;50.926;5.340;2023-09-07T09:07:18;58.45;;;8.02;;
17991;SDS011;9121;50.926;5.340;2023-09-07T09:09:46;22.67;;;5.65;;
17991;SDS011;9121;50.926;5.340;2023-09-07T09:12:13;12.65;;;5.78;;
17991;SDS011;9121;50.926;5.340;2023-09-07T09:14:41;16.77;;;5.20;;
17991;SDS011;9121;50.926;5.340;2023-09-07T09:17:13;14.90;;;5.45;;
17991;SDS011;9121;50.926;5.340;2023-09-07T09:19:41;9.50;;;5.60;;
17991;SDS011;9121;50.926;5.340;2023-09-07T09:22:08;18.48;;;6.15;;
17991;SDS011;9121;50.926;5.340;2023-09-07T09:24:37;12.02;;;5.15;;
17991;SDS011;9121;50.926;5.340;2023-09-07T09:27:04;8.35;;;4.43;;
17991;SDS011;9121;50.926;5.340;2023-09-07T09:29:34;15.90;;;4.68;;
17991;SDS011;9121;50.926;5.340;2023-09-07T09:32:02;8.43;;;4.75;;
17991;SDS011;9121;50.926;5.340;2023-09-07T09:34:31;10.73;;;4.95;;
17991;SDS011;9121;50.926;5.340;2023-09-07T09:37:00;11.52;;;5.18;;
17991;SDS011;9121;50.926;5.340;2023-09-07T09:39:28;8.00;;;4.60;;
17991;SDS011;9121;50.926;5.340;2023-09-07T09:41:57;13.95;;;4.95;;
17991;SDS011;9121;50.926;5.340;2023-09-07T09:44:24;71.43;;;8.27;;
17991;SDS011;9121;50.926;5.340;2023-09-07T09:46:54;7.40;;;4.45;;
17991;SDS011;9121;50.926;5.340;2023-09-07T09:49:22;19.92;;;5.10;;
17991;SDS011;9121;50.926;5.340;2023-09-07T09:51:51;269.05;;;18.40;;
17991;SDS011;9121;50.926;5.340;2023-09-07T09:54:18;10.80;;;4.35;;
17991;SDS011;9121;50.926;5.340;2023-09-07T09:56:47;8.30;;;4.40;;
17991;SDS011;9121;50.926;5.340;2023-09-07T09:59:15;17.60;;;5.10;;
17991;SDS011;9121;50.926;5.340;2023-09-07T10:01:44;6.63;;;4.72;;
17991;SDS011;9121;50.926;5.340;2023-09-07T10:04:12;10.43;;;4.75;;
17991;SDS011;9121;50.926;5.340;2023-09-07T10:06:49;24.95;;;5.43;;
17991;SDS011;9121;50.926;5.340;2023-09-07T10:09:19;21.77;;;5.80;;
17991;SDS011;9121;50.926;5.340;2023-09-07T10:11:51;37.05;;;4.97;;
17991;SDS011;9121;50.926;5.340;2023-09-07T10:14:20;11.70;;;4.47;;
17991;SDS011;9121;50.926;5.340;2023-09-07T10:16:48;10.50;;;4.72;;
17991;SDS011;9121;50.926;5.340;2023-09-07T10:19:17;10.85;;;4.30;;
17991;SDS011;9121;50.926;5.340;2023-09-07T10:21:45;9.32;;;4.80;;
17991;SDS011;9121;50.926;5.340;2023-09-07T10:24:22;7.45;;;4.22;;
17991;SDS011;9121;50.926;5.340;2023-09-07T10:26:55;3.22;;;2.92;;
17991;SDS011;9121;50.926;5.340;2023-09-07T10:29:24;13.45;;;3.72;;
17991;SDS011;9121;50.926;5.340;2023-09-07T10:31:52;17.23;;;4.20;;
17991;SDS011;9121;50.926;5.340;2023-09-07T10:34:20;7.47;;;3.35;;
17991;SDS011;9121;50.926;5.340;2023-09-07T10:36:47;4.35;;;3.58;;
17991;SDS011;9121;50.926;5.340;2023-09-07T10:39:18;4.32;;;3.20;;
17991;SDS011;9121;50.926;5.340;2023-09-07T10:41:45;5.10;;;3.33;;
17991;SDS011;9121;50.926;5.340;2023-09-07T10:44:13;7.47;;;3.35;;
17991;SDS011;9121;50.926;5.340;2023-09-07T10:46:41;66.18;;;6.28;;
17991;SDS011;9121;50.926;5.340;2023-09-07T10:49:08;17.52;;;4.63;;
17991;SDS011;9121;50.926;5.340;2023-09-07T10:51:41;6.97;;;3.42;;
17991;SDS011;9121;50.926;5.340;2023-09-07T10:54:16;6.88;;;3.58;;
17991;SDS011;9121;50.926;5.340;2023-09-07T10:56:43;68.70;;;8.02;;
17991;SDS011;9121;50.926;5.340;2023-09-07T10:59:11;8.13;;;3.97;;
17991;SDS011;9121;50.926;5.340;2023-09-07T11:01:41;6.78;;;3.53;;
17991;SDS011;9121;50.926;5.340;2023-09-07T11:04:08;6.13;;;3.90;;
17991;SDS011;9121;50.926;5.340;2023-09-07T11:06:36;18.58;;;3.97;;
17991;SDS011;9121;50.926;5.340;2023-09-07T11:09:03;7.22;;;3.40;;
17991;SDS011;9121;50.926;5.340;2023-09-07T11:11:33;8.20;;;4.32;;
17991;SDS011;9121;50.926;5.340;2023-09-07T11:14:01;7.82;;;4.63;;
17991;SDS011;9121;50.926;5.340;2023-09-07T11:16:29;4.85;;;3.80;;
17991;SDS011;9121;50.926;5.340;2023-09-07T11:18:57;12.00;;;4.15;;
17991;SDS011;9121;50.926;5.340;2023-09-07T11:21:29;5.53;;;3.60;;
17991;SDS011;9121;50.926;5.340;2023-09-07T11:23:57;6.78;;;4.03;;
17991;SDS011;9121;50.926;5.340;2023-09-07T11:26:24;26.55;;;5.57;;
17991;SDS011;9121;50.926;5.340;2023-09-07T11:28:51;130.88;;;10.93;;
17991;SDS011;9121;50.926;5.340;2023-09-07T11:31:19;22.02;;;5.30;;
17991;SDS011;9121;50.926;5.340;2023-09-07T11:33:47;7.50;;;4.15;;
17991;SDS011;9121;50.926;5.340;2023-09-07T11:36:15;24.25;;;5.43;;
17991;SDS011;9121;50.926;5.340;2023-09-07T11:38:43;56.22;;;6.50;;
17991;SDS011;9121;50.926;5.340;2023-09-07T11:41:10;25.10;;;4.53;;
17991;SDS011;9121;50.926;5.340;2023-09-07T11:43:37;16.15;;;4.70;;
17991;SDS011;9121;50.926;5.340;2023-09-07T11:46:05;6.43;;;3.70;;
17991;SDS011;9121;50.926;5.340;2023-09-07T11:48:32;14.10;;;5.22;;
17991;SDS011;9121;50.926;5.340;2023-09-07T11:50:59;6.93;;;4.13;;
17991;SDS011;9121;50.926;5.340;2023-09-07T11:53:28;58.83;;;7.40;;
17991;SDS011;9121;50.926;5.340;2023-09-07T11:55:55;5.45;;;3.58;;
17991;SDS011;9121;50.926;5.340;2023-09-07T11:58:24;6.18;;;3.80;;
17991;SDS011;9121;50.926;5.340;2023-09-07T12:00:52;34.80;;;4.85;;
17991;SDS011;9121;50.926;5.340;2023-09-07T12:03:19;9.45;;;3.75;;
17991;SDS011;9121;50.926;5.340;2023-09-07T12:05:46;23.75;;;5.45;;
17991;SDS011;9121;50.926;5.340;2023-09-07T12:08:13;6.47;;;3.33;;
17991;SDS011;9121;50.926;5.340;2023-09-07T12:10:42;9.20;;;3.80;;
17991;SDS011;9121;50.926;5.340;2023-09-07T12:13:09;10.63;;;4.00;;
17991;SDS011;9121;50.926;5.340;2023-09-07T12:15:36;7.70;;;4.18;;
17991;SDS011;9121;50.926;5.340;2023-09-07T12:18:03;7.35;;;3.55;;
17991;SDS011;9121;50.926;5.340;2023-09-07T12:20:30;156.65;;;13.63;;
17991;SDS011;9121;50.926;5.340;2023-09-07T12:22:59;13.13;;;4.25;;
17991;SDS011;9121;50.926;5.340;2023-09-07T12:25:25;343.05;;;26.23;;
17991;SDS011;9121;50.926;5.340;2023-09-07T12:27:54;7.78;;;3.88;;
17991;SDS011;9121;50.926;5.340;2023-09-07T12:30:22;9.23;;;4.22;;
17991;SDS011;9121;50.926;5.340;2023-09-07T12:32:49;10.65;;;4.20;;
17991;SDS011;9121;50.926;5.340;2023-09-07T12:35:16;15.07;;;4.45;;
17991;SDS011;9121;50.926;5.340;2023-09-07T12:37:45;8.82;;;3.60;;
17991;SDS011;9121;50.926;5.340;2023-09-07T12:40:12;7.20;;;3.60;;
17991;SDS011;9121;50.926;5.340;2023-09-07T12:42:40;10.70;;;3.65;;
17991;SDS011;9121;50.926;5.340;2023-09-07T12:45:09;67.43;;;5.88;;
17991;SDS011;9121;50.926;5.340;2023-09-07T12:47:37;6.97;;;3.58;;
17991;SDS011;9121;50.926;5.340;2023-09-07T12:50:04;10.05;;;4.47;;
17991;SDS011;9121;50.926;5.340;2023-09-07T12:52:32;9.65;;;3.90;;
17991;SDS011;9121;50.926;5.340;2023-09-07T12:55:01;13.05;;;4.88;;
17991;SDS011;9121;50.926;5.340;2023-09-07T12:57:28;8.10;;;3.83;;
17991;SDS011;9121;50.926;5.340;2023-09-07T12:59:55;12.43;;;4.10;;
17991;SDS011;9121;50.926;5.340;2023-09-07T13:02:23;7.53;;;3.15;;
17991;SDS011;9121;50.926;5.340;2023-09-07T13:04:50;114.82;;;8.30;;
17991;SDS011;9121;50.926;5.340;2023-09-07T13:07:20;7.15;;;3.55;;
17991;SDS011;9121;50.926;5.340;2023-09-07T13:09:47;9.70;;;3.90;;
17991;SDS011;9121;50.926;5.340;2023-09-07T13:12:14;11.38;;;4.03;;
17991;SDS011;9121;50.926;5.340;2023-09-07T13:14:41;13.55;;;4.47;;
17991;SDS011;9121;50.926;5.340;2023-09-07T13:17:11;7.47;;;4.18;;
17991;SDS011;9121;50.926;5.340;2023-09-07T13:19:41;35.78;;;5.53;;
17991;SDS011;9121;50.926;5.340;2023-09-07T13:22:09;66.55;;;7.43;;
17991;SDS011;9121;50.926;5.340;2023-09-07T13:24:36;63.50;;;10.93;;
17991;SDS011;9121;50.926;5.340;2023-09-07T13:27:03;11.65;;;6.47;;
17991;SDS011;9121;50.926;5.340;2023-09-07T13:29:30;7.68;;;6.60;;
17991;SDS011;9121;50.926;5.340;2023-09-07T13:31:57;8.20;;;6.28;;
17991;SDS011;9121;50.926;5.340;2023-09-07T13:34:24;18.23;;;6.65;;
17991;SDS011;9121;50.926;5.340;2023-09-07T13:36:53;11.18;;;6.28;;
17991;SDS011;9121;50.926;5.340;2023-09-07T13:39:20;11.25;;;6.47;;
17991;SDS011;9121;50.926;5.340;2023-09-07T13:41:48;10.40;;;6.32;;
17991;SDS011;9121;50.926;5.340;2023-09-07T13:44:15;17.88;;;5.93;;
17991;SDS011;9121;50.926;5.340;2023-09-07T13:46:42;12.73;;;5.75;;
17991;SDS011;9121;50.926;5.340;2023-09-07T13:49:10;11.48;;;5.75;;
17991;SDS011;9121;50.926;5.340;2023-09-07T13:51:37;7.75;;;5.25;;
17991;SDS011;9121;50.926;5.340;2023-09-07T13:54:06;15.82;;;6.13;;
17991;SDS011;9121;50.926;5.340;2023-09-07T13:56:33;12.52;;;5.68;;
17991;SDS011;9121;50.926;5.340;2023-09-07T13:59:01;8.20;;;4.95;;
17991;SDS011;9121;50.926;5.340;2023-09-07T14:01:28;10.65;;;5.97;;
17991;SDS011;9121;50.926;5.340;2023-09-07T14:03:55;37.33;;;6.78;;
17991;SDS011;9121;50.926;5.340;2023-09-07T14:06:22;12.00;;;5.80;;
17991;SDS011;9121;50.926;5.340;2023-09-07T14:08:49;8.88;;;5.50;;
17991;SDS011;9121;50.926;5.340;2023-09-07T14:11:17;12.65;;;6.45;;
17991;SDS011;9121;50.926;5.340;2023-09-07T14:13:44;15.32;;;7.43;;
17991;SDS011;9121;50.926;5.340;2023-09-07T14:16:14;12.77;;;7.90;;
17991;SDS011;9121;50.926;5.340;2023-09-07T14:18:41;12.43;;;7.38;;
17991;SDS011;9121;50.926;5.340;2023-09-07T14:21:09;12.10;;;5.45;;
17991;SDS011;9121;50.926;5.340;2023-09-07T14:23:36;9.63;;;4.13;;
17991;SDS011;9121;50.926;5.340;2023-09-07T14:26:03;10.52;;;4.00;;
17991;SDS011;9121;50.926;5.340;2023-09-07T14:28:31;5.60;;;3.85;;
17991;SDS011;9121;50.926;5.340;2023-09-07T14:30:58;9.80;;;3.97;;
17991;SDS011;9121;50.926;5.340;2023-09-07T14:33:28;10.15;;;4.32;;
17991;SDS011;9121;50.926;5.340;2023-09-07T14:35:55;23.58;;;5.13;;
17991;SDS011;9121;50.926;5.340;2023-09-07T14:38:22;10.30;;;6.20;;
17991;SDS011;9121;50.926;5.340;2023-09-07T14:40:51;5.47;;;3.92;;
17991;SDS011;9121;50.926;5.340;2023-09-07T14:43:20;8.52;;;4.18;;
17991;SDS011;9121;50.926;5.340;2023-09-07T14:45:48;6.97;;;3.80;;
17991;SDS011;9121;50.926;5.340;2023-09-07T14:48:15;9.05;;;3.72;;